EDW335T LGKL-LSZH
Flight info
| Callsign | EDW335T |
|---|---|
| Flight time | 2h 22m |
| Altitude | 38000 |
| Route | ANEPI DCT TRL UN1 ARA UL611 GARTA DCT TUMBO DCT RETRA DCT ELTIB DCT PENEP DCT ERKIR DCT KPT L856 NEGRA |
| Aircraft | A320/M-SDE2E3FGHIJ1RWXY/LB1 |
Departure
| Time | 2026-05-06 10:41 |
|---|---|
| Airport | Kalamata Airport (LGKL) |
Arrival
| Time | 2026-05-06 13:03 |
|---|---|
| Airport | Zürich Airport (LSZH) |
| Time | Latitude | Longitude | Altitude | Speed | Heading |
|---|---|---|---|---|---|
| 2026-05-06 10:15 | 37.05534 | 22.03338 | 35 ft | 0 kts | 118° |
| 2026-05-06 10:34 | 37.05523 | 22.03334 | 35 ft | 4 kts | 208° |
| 2026-05-06 10:34 | 37.05491 | 22.03306 | 35 ft | 8 kts | 242° |
| 2026-05-06 10:35 | 37.05508 | 22.03187 | 35 ft | 18 kts | 294° |
| 2026-05-06 10:35 | 37.05543 | 22.03027 | 34 ft | 18 kts | 284° |
| 2026-05-06 10:35 | 37.05604 | 22.02954 | 34 ft | 15 kts | 349° |
| 2026-05-06 10:35 | 37.05719 | 22.02928 | 33 ft | 19 kts | 349° |
| 2026-05-06 10:36 | 37.05857 | 22.02896 | 34 ft | 22 kts | 349° |
| 2026-05-06 10:36 | 37.06016 | 22.02859 | 33 ft | 25 kts | 349° |
| 2026-05-06 10:36 | 37.06195 | 22.02817 | 32 ft | 28 kts | 349° |
| 2026-05-06 10:36 | 37.06395 | 22.02771 | 34 ft | 30 kts | 349° |
| 2026-05-06 10:37 | 37.06609 | 22.02721 | 33 ft | 30 kts | 350° |
| 2026-05-06 10:37 | 37.06799 | 22.02676 | 34 ft | 26 kts | 350° |
| 2026-05-06 10:37 | 37.06984 | 22.02633 | 34 ft | 26 kts | 349° |
| 2026-05-06 10:37 | 37.07103 | 22.02605 | 34 ft | 18 kts | 349° |
| 2026-05-06 10:38 | 37.07239 | 22.02573 | 34 ft | 22 kts | 349° |
| 2026-05-06 10:38 | 37.07396 | 22.02537 | 32 ft | 25 kts | 349° |
| 2026-05-06 10:38 | 37.07575 | 22.02495 | 33 ft | 28 kts | 349° |
| 2026-05-06 10:38 | 37.07766 | 22.02449 | 34 ft | 24 kts | 349° |
| 2026-05-06 10:39 | 37.07864 | 22.02426 | 34 ft | 6 kts | 348° |
| 2026-05-06 10:39 | 37.07897 | 22.02411 | 33 ft | 4 kts | 312° |
| 2026-05-06 10:39 | 37.07900 | 22.02360 | 35 ft | 7 kts | 262° |
| 2026-05-06 10:39 | 37.07892 | 22.02302 | 35 ft | 6 kts | 257° |
| 2026-05-06 10:40 | 37.07869 | 22.02301 | 34 ft | 0 kts | 171° |
| 2026-05-06 10:40 | 37.07862 | 22.02302 | 32 ft | 12 kts | 171° |
| 2026-05-06 10:40 | 37.07499 | 22.02387 | 32 ft | 89 kts | 169° |
| 2026-05-06 10:40 | 37.06682 | 22.02577 | 34 ft | 147 kts | 169° |
| 2026-05-06 10:41 | 37.05605 | 22.02825 | 450 ft | 159 kts | 169° |
| 2026-05-06 10:41 | 37.04513 | 22.03068 | 1180 ft | 159 kts | 170° |
| 2026-05-06 10:41 | 37.03379 | 22.03302 | 1696 ft | 173 kts | 171° |
| 2026-05-06 10:41 | 37.02167 | 22.03529 | 2294 ft | 181 kts | 171° |
| 2026-05-06 10:42 | 37.00899 | 22.03781 | 2848 ft | 189 kts | 171° |
| 2026-05-06 10:42 | 36.99565 | 22.03935 | 3410 ft | 198 kts | 180° |
| 2026-05-06 10:42 | 36.98139 | 22.03858 | 3900 ft | 211 kts | 185° |
| 2026-05-06 10:42 | 36.96619 | 22.03713 | 4332 ft | 231 kts | 185° |
| 2026-05-06 10:43 | 36.94945 | 22.03414 | 4751 ft | 253 kts | 198° |
| 2026-05-06 10:43 | 36.93345 | 22.02390 | 5373 ft | 266 kts | 218° |
| 2026-05-06 10:43 | 36.92084 | 22.00678 | 6012 ft | 273 kts | 238° |
| 2026-05-06 10:44 | 36.91425 | 21.96156 | 7801 ft | 279 kts | 289° |
| 2026-05-06 10:44 | 36.92514 | 21.94145 | 8517 ft | 286 kts | 320° |
| 2026-05-06 10:44 | 36.94250 | 21.92925 | 9327 ft | 290 kts | 342° |
| 2026-05-06 10:44 | 36.96196 | 21.92192 | 10142 ft | 294 kts | 342° |
| 2026-05-06 10:45 | 36.98205 | 21.91404 | 10590 ft | 314 kts | 341° |
| 2026-05-06 10:45 | 37.00359 | 21.90527 | 10855 ft | 337 kts | 341° |
| 2026-05-06 10:45 | 37.02633 | 21.89592 | 11367 ft | 348 kts | 341° |
| 2026-05-06 10:45 | 37.04941 | 21.88645 | 12170 ft | 350 kts | 341° |
| 2026-05-06 10:46 | 37.07260 | 21.87700 | 12976 ft | 351 kts | 341° |
| 2026-05-06 10:46 | 37.09590 | 21.86751 | 13739 ft | 353 kts | 341° |
| 2026-05-06 10:46 | 37.11939 | 21.85793 | 14454 ft | 356 kts | 340° |
| 2026-05-06 10:46 | 37.14305 | 21.84827 | 15159 ft | 359 kts | 340° |
| 2026-05-06 10:47 | 37.16687 | 21.83854 | 15846 ft | 361 kts | 340° |
| 2026-05-06 10:47 | 37.19086 | 21.82877 | 16506 ft | 364 kts | 340° |
| 2026-05-06 10:47 | 37.21502 | 21.81896 | 17161 ft | 366 kts | 340° |
| 2026-05-06 10:47 | 37.23933 | 21.80908 | 17786 ft | 369 kts | 340° |
| 2026-05-06 10:48 | 37.26384 | 21.79909 | 18395 ft | 372 kts | 340° |
| 2026-05-06 10:48 | 37.28854 | 21.78900 | 19004 ft | 375 kts | 340° |
| 2026-05-06 10:48 | 37.31341 | 21.77882 | 19612 ft | 377 kts | 340° |
| 2026-05-06 10:48 | 37.33846 | 21.76857 | 20202 ft | 380 kts | 340° |
| 2026-05-06 10:49 | 37.36369 | 21.75828 | 20779 ft | 382 kts | 340° |
| 2026-05-06 10:49 | 37.38905 | 21.74793 | 21331 ft | 385 kts | 340° |
| 2026-05-06 10:49 | 37.41460 | 21.73750 | 21878 ft | 387 kts | 340° |
| 2026-05-06 10:49 | 37.44029 | 21.72698 | 22383 ft | 389 kts | 340° |
| 2026-05-06 10:50 | 37.46612 | 21.71639 | 22879 ft | 392 kts | 340° |
| 2026-05-06 10:50 | 37.49213 | 21.70571 | 23352 ft | 394 kts | 340° |
| 2026-05-06 10:50 | 37.51827 | 21.69497 | 23827 ft | 396 kts | 340° |
| 2026-05-06 10:50 | 37.54453 | 21.68415 | 24264 ft | 398 kts | 340° |
| 2026-05-06 10:51 | 37.57092 | 21.67328 | 24669 ft | 401 kts | 340° |
| 2026-05-06 10:51 | 37.59752 | 21.66235 | 25065 ft | 403 kts | 340° |
| 2026-05-06 10:51 | 37.62426 | 21.65138 | 25438 ft | 406 kts | 340° |
| 2026-05-06 10:51 | 37.65120 | 21.64033 | 25817 ft | 408 kts | 340° |
| 2026-05-06 10:52 | 37.67827 | 21.62922 | 26191 ft | 410 kts | 340° |
| 2026-05-06 10:52 | 37.70546 | 21.61805 | 26547 ft | 412 kts | 340° |
| 2026-05-06 10:52 | 37.73280 | 21.60678 | 26881 ft | 415 kts | 340° |
| 2026-05-06 10:52 | 37.76031 | 21.59540 | 27212 ft | 417 kts | 340° |
| 2026-05-06 10:53 | 37.78792 | 21.58393 | 27539 ft | 419 kts | 340° |
| 2026-05-06 10:53 | 37.81569 | 21.57240 | 27847 ft | 421 kts | 340° |
| 2026-05-06 10:53 | 37.84361 | 21.56084 | 28144 ft | 423 kts | 340° |
| 2026-05-06 10:53 | 37.87165 | 21.54923 | 28439 ft | 425 kts | 340° |
| 2026-05-06 10:54 | 37.89982 | 21.53754 | 28724 ft | 427 kts | 340° |
| 2026-05-06 10:54 | 37.92809 | 21.52576 | 28991 ft | 429 kts | 340° |
| 2026-05-06 10:54 | 37.95649 | 21.51391 | 29241 ft | 431 kts | 340° |
| 2026-05-06 10:54 | 37.98501 | 21.50204 | 29491 ft | 432 kts | 340° |
| 2026-05-06 10:55 | 38.01365 | 21.49014 | 29732 ft | 434 kts | 340° |
| 2026-05-06 10:55 | 38.04239 | 21.47820 | 29998 ft | 435 kts | 340° |
| 2026-05-06 10:55 | 38.07106 | 21.46627 | 30324 ft | 434 kts | 339° |
| 2026-05-06 10:55 | 38.09971 | 21.45434 | 30629 ft | 433 kts | 339° |
| 2026-05-06 10:56 | 38.12829 | 21.44236 | 30925 ft | 432 kts | 339° |
| 2026-05-06 10:56 | 38.15677 | 21.43026 | 31235 ft | 431 kts | 337° |
| 2026-05-06 10:56 | 38.18431 | 21.41555 | 31529 ft | 429 kts | 334° |
| 2026-05-06 10:56 | 38.21164 | 21.40043 | 31821 ft | 428 kts | 334° |
| 2026-05-06 10:57 | 38.23895 | 21.38533 | 32107 ft | 428 kts | 334° |
| 2026-05-06 10:57 | 38.26623 | 21.37024 | 32392 ft | 427 kts | 334° |
| 2026-05-06 10:57 | 38.29349 | 21.35516 | 32671 ft | 426 kts | 334° |
| 2026-05-06 10:57 | 38.32070 | 21.34014 | 32942 ft | 426 kts | 334° |
| 2026-05-06 10:58 | 38.34790 | 21.32512 | 33208 ft | 426 kts | 334° |
| 2026-05-06 10:58 | 38.37506 | 21.31008 | 33472 ft | 426 kts | 334° |
| 2026-05-06 10:58 | 38.40216 | 21.29502 | 33750 ft | 425 kts | 334° |
| 2026-05-06 10:58 | 38.42921 | 21.27995 | 34017 ft | 424 kts | 334° |
| 2026-05-06 10:59 | 38.45626 | 21.26487 | 34284 ft | 424 kts | 334° |
| 2026-05-06 10:59 | 38.48328 | 21.24981 | 34549 ft | 424 kts | 334° |
| 2026-05-06 10:59 | 38.51028 | 21.23476 | 34810 ft | 423 kts | 334° |
| 2026-05-06 10:59 | 38.53726 | 21.21975 | 35062 ft | 423 kts | 334° |
| 2026-05-06 11:00 | 38.56424 | 21.20474 | 35300 ft | 423 kts | 334° |
| 2026-05-06 11:00 | 38.59118 | 21.18977 | 35531 ft | 423 kts | 333° |
| 2026-05-06 11:00 | 38.61810 | 21.17476 | 35782 ft | 422 kts | 333° |
| 2026-05-06 11:00 | 38.64497 | 21.15976 | 36016 ft | 421 kts | 333° |
| 2026-05-06 11:01 | 38.67176 | 21.14476 | 36231 ft | 420 kts | 333° |
| 2026-05-06 11:01 | 38.69854 | 21.12973 | 36430 ft | 420 kts | 333° |
| 2026-05-06 11:01 | 38.72531 | 21.11469 | 36620 ft | 420 kts | 333° |
| 2026-05-06 11:01 | 38.75205 | 21.09966 | 36837 ft | 419 kts | 333° |
| 2026-05-06 11:02 | 38.77866 | 21.08469 | 37070 ft | 417 kts | 333° |
| 2026-05-06 11:02 | 38.80514 | 21.06982 | 37316 ft | 414 kts | 333° |
| 2026-05-06 11:02 | 38.83143 | 21.05508 | 37541 ft | 411 kts | 333° |
| 2026-05-06 11:02 | 38.85761 | 21.04038 | 37721 ft | 411 kts | 333° |
| 2026-05-06 11:03 | 38.88378 | 21.02565 | 37878 ft | 411 kts | 333° |
| 2026-05-06 11:03 | 38.90993 | 21.01092 | 38047 ft | 410 kts | 333° |
| 2026-05-06 11:03 | 38.93608 | 20.99619 | 38126 ft | 411 kts | 333° |
| 2026-05-06 11:04 | 38.98852 | 20.96665 | 38138 ft | 412 kts | 334° |
| 2026-05-06 11:04 | 39.04225 | 20.94060 | 38136 ft | 413 kts | 338° |
| 2026-05-06 11:05 | 39.09683 | 20.91709 | 38133 ft | 414 kts | 338° |
| 2026-05-06 11:05 | 39.14217 | 20.89746 | 38149 ft | 413 kts | 338° |
| 2026-05-06 11:06 | 39.19651 | 20.87313 | 38140 ft | 414 kts | 337° |
| 2026-05-06 11:06 | 39.25081 | 20.84836 | 38147 ft | 414 kts | 337° |
| 2026-05-06 11:07 | 39.30508 | 20.82366 | 38136 ft | 413 kts | 337° |
| 2026-05-06 11:07 | 39.35932 | 20.79894 | 38141 ft | 414 kts | 337° |
| 2026-05-06 11:08 | 39.41360 | 20.77414 | 38141 ft | 414 kts | 337° |
| 2026-05-06 11:08 | 39.46787 | 20.74938 | 38137 ft | 413 kts | 337° |
| 2026-05-06 11:09 | 39.52217 | 20.72452 | 38144 ft | 414 kts | 337° |
| 2026-05-06 11:09 | 39.57644 | 20.69966 | 38144 ft | 414 kts | 337° |
| 2026-05-06 11:10 | 39.63072 | 20.67484 | 38136 ft | 413 kts | 337° |
| 2026-05-06 11:10 | 39.68495 | 20.64985 | 38146 ft | 414 kts | 337° |
| 2026-05-06 11:11 | 39.73918 | 20.62490 | 38146 ft | 414 kts | 337° |
| 2026-05-06 11:11 | 39.79344 | 20.59983 | 38148 ft | 414 kts | 337° |
| 2026-05-06 11:12 | 39.84761 | 20.57465 | 38141 ft | 413 kts | 337° |
| 2026-05-06 11:12 | 39.90184 | 20.54954 | 38139 ft | 414 kts | 337° |
| 2026-05-06 11:13 | 39.95613 | 20.52453 | 38144 ft | 414 kts | 337° |
| 2026-05-06 11:13 | 40.01038 | 20.49946 | 38134 ft | 414 kts | 337° |
| 2026-05-06 11:14 | 40.06455 | 20.47418 | 38135 ft | 413 kts | 337° |
| 2026-05-06 11:14 | 40.11826 | 20.44770 | 38149 ft | 412 kts | 335° |
| 2026-05-06 11:15 | 40.17157 | 20.42015 | 38134 ft | 412 kts | 335° |
| 2026-05-06 11:15 | 40.22486 | 20.39253 | 38132 ft | 412 kts | 335° |
| 2026-05-06 11:16 | 40.27827 | 20.36521 | 38128 ft | 412 kts | 335° |
| 2026-05-06 11:16 | 40.33177 | 20.33801 | 38128 ft | 412 kts | 335° |
| 2026-05-06 11:17 | 40.38521 | 20.31059 | 38126 ft | 412 kts | 335° |
| 2026-05-06 11:17 | 40.43860 | 20.28309 | 38125 ft | 412 kts | 335° |
| 2026-05-06 11:18 | 40.49196 | 20.25549 | 38123 ft | 412 kts | 335° |
| 2026-05-06 11:18 | 40.54533 | 20.22800 | 38121 ft | 412 kts | 335° |
| 2026-05-06 11:19 | 40.59872 | 20.20043 | 38122 ft | 412 kts | 335° |
| 2026-05-06 11:19 | 40.65211 | 20.17291 | 38121 ft | 412 kts | 335° |
| 2026-05-06 11:20 | 40.70542 | 20.14525 | 38122 ft | 412 kts | 335° |
| 2026-05-06 11:20 | 40.75876 | 20.11747 | 38127 ft | 412 kts | 335° |
| 2026-05-06 11:21 | 40.81211 | 20.08974 | 38127 ft | 412 kts | 335° |
| 2026-05-06 11:21 | 40.86542 | 20.06203 | 38122 ft | 411 kts | 335° |
| 2026-05-06 11:22 | 40.91864 | 20.03432 | 38118 ft | 411 kts | 335° |
| 2026-05-06 11:22 | 40.97186 | 20.00642 | 38119 ft | 411 kts | 335° |
| 2026-05-06 11:23 | 41.02506 | 19.97857 | 38107 ft | 412 kts | 335° |
| 2026-05-06 11:23 | 41.07845 | 19.95065 | 38099 ft | 413 kts | 335° |
| 2026-05-06 11:24 | 41.13197 | 19.92253 | 38099 ft | 414 kts | 335° |
| 2026-05-06 11:24 | 41.18553 | 19.89429 | 38100 ft | 415 kts | 335° |
| 2026-05-06 11:25 | 41.23918 | 19.86594 | 38100 ft | 415 kts | 335° |
| 2026-05-06 11:25 | 41.29291 | 19.83761 | 38101 ft | 415 kts | 335° |
| 2026-05-06 11:26 | 41.34665 | 19.80921 | 38104 ft | 416 kts | 335° |
| 2026-05-06 11:26 | 41.40036 | 19.78068 | 38107 ft | 416 kts | 335° |
| 2026-05-06 11:27 | 41.45406 | 19.75210 | 38111 ft | 416 kts | 335° |
| 2026-05-06 11:27 | 41.50780 | 19.72349 | 38114 ft | 416 kts | 335° |
| 2026-05-06 11:28 | 41.56156 | 19.69485 | 38117 ft | 416 kts | 335° |
| 2026-05-06 11:28 | 41.61530 | 19.66617 | 38118 ft | 415 kts | 335° |
| 2026-05-06 11:29 | 41.66896 | 19.63742 | 38116 ft | 416 kts | 335° |
| 2026-05-06 11:29 | 41.72264 | 19.60863 | 38114 ft | 415 kts | 335° |
| 2026-05-06 11:30 | 41.77631 | 19.57988 | 38113 ft | 416 kts | 335° |
| 2026-05-06 11:30 | 41.82992 | 19.55099 | 38114 ft | 415 kts | 335° |
| 2026-05-06 11:31 | 41.88351 | 19.52214 | 38109 ft | 415 kts | 335° |
| 2026-05-06 11:31 | 41.93679 | 19.49349 | 38102 ft | 415 kts | 335° |
| 2026-05-06 11:32 | 41.99039 | 19.46456 | 38100 ft | 415 kts | 335° |
| 2026-05-06 11:32 | 42.04399 | 19.43546 | 38098 ft | 416 kts | 335° |
| 2026-05-06 11:33 | 42.09765 | 19.40632 | 38096 ft | 416 kts | 335° |
| 2026-05-06 11:33 | 42.15137 | 19.37706 | 38099 ft | 417 kts | 335° |
| 2026-05-06 11:34 | 42.20505 | 19.34765 | 38091 ft | 416 kts | 333° |
| 2026-05-06 11:34 | 42.25326 | 19.30639 | 38090 ft | 409 kts | 316° |
| 2026-05-06 11:35 | 42.29640 | 19.25609 | 38078 ft | 410 kts | 317° |
| 2026-05-06 11:35 | 42.33970 | 19.20586 | 38075 ft | 411 kts | 317° |
| 2026-05-06 11:36 | 42.38307 | 19.15551 | 38079 ft | 411 kts | 317° |
| 2026-05-06 11:36 | 42.42640 | 19.10487 | 38082 ft | 412 kts | 316° |
| 2026-05-06 11:37 | 42.46979 | 19.05417 | 38089 ft | 412 kts | 316° |
| 2026-05-06 11:37 | 42.51312 | 19.00327 | 38085 ft | 413 kts | 316° |
| 2026-05-06 11:38 | 42.55658 | 18.95228 | 38095 ft | 413 kts | 316° |
| 2026-05-06 11:38 | 42.60014 | 18.90120 | 38094 ft | 414 kts | 316° |
| 2026-05-06 11:39 | 42.64368 | 18.84988 | 38102 ft | 415 kts | 316° |
| 2026-05-06 11:39 | 42.68727 | 18.79842 | 38105 ft | 415 kts | 316° |
| 2026-05-06 11:40 | 42.73084 | 18.74690 | 38106 ft | 415 kts | 316° |
| 2026-05-06 11:40 | 42.77433 | 18.69528 | 38102 ft | 415 kts | 316° |
| 2026-05-06 11:41 | 42.81779 | 18.64364 | 38105 ft | 415 kts | 316° |
| 2026-05-06 11:41 | 42.86128 | 18.59202 | 38100 ft | 415 kts | 316° |
| 2026-05-06 11:42 | 42.90475 | 18.54027 | 38100 ft | 415 kts | 316° |
| 2026-05-06 11:42 | 42.94823 | 18.48835 | 38096 ft | 416 kts | 316° |
| 2026-05-06 11:43 | 42.99169 | 18.43625 | 38096 ft | 416 kts | 316° |
| 2026-05-06 11:43 | 43.03515 | 18.38402 | 38096 ft | 416 kts | 316° |
| 2026-05-06 11:44 | 43.10046 | 18.30567 | 38085 ft | 416 kts | 316° |
| 2026-05-06 11:44 | 43.14395 | 18.25329 | 38079 ft | 416 kts | 315° |
| 2026-05-06 11:45 | 43.18740 | 18.20083 | 38065 ft | 416 kts | 315° |
| 2026-05-06 11:45 | 43.23080 | 18.14832 | 38053 ft | 416 kts | 315° |
| 2026-05-06 11:46 | 43.27416 | 18.09574 | 38044 ft | 416 kts | 315° |
| 2026-05-06 11:46 | 43.31757 | 18.04304 | 38039 ft | 417 kts | 315° |
| 2026-05-06 11:47 | 43.35375 | 17.99910 | 38035 ft | 418 kts | 315° |
| 2026-05-06 11:47 | 43.39727 | 17.94607 | 38026 ft | 419 kts | 315° |
| 2026-05-06 11:48 | 43.44087 | 17.89274 | 38022 ft | 420 kts | 315° |
| 2026-05-06 11:48 | 43.48452 | 17.83923 | 38024 ft | 420 kts | 315° |
| 2026-05-06 11:49 | 43.52825 | 17.78568 | 38024 ft | 421 kts | 315° |
| 2026-05-06 11:49 | 43.57196 | 17.73203 | 38027 ft | 421 kts | 315° |
| 2026-05-06 11:50 | 43.61567 | 17.67821 | 38032 ft | 421 kts | 315° |
| 2026-05-06 11:50 | 43.65940 | 17.62432 | 38035 ft | 422 kts | 315° |
| 2026-05-06 11:51 | 43.70313 | 17.57035 | 38037 ft | 422 kts | 315° |
| 2026-05-06 11:51 | 43.74681 | 17.51617 | 38040 ft | 422 kts | 315° |
| 2026-05-06 11:52 | 43.79049 | 17.46185 | 38041 ft | 422 kts | 315° |
| 2026-05-06 11:52 | 43.83415 | 17.40754 | 38042 ft | 422 kts | 314° |
| 2026-05-06 11:53 | 43.87784 | 17.35324 | 38042 ft | 422 kts | 314° |
| 2026-05-06 11:53 | 43.92153 | 17.29878 | 38037 ft | 422 kts | 314° |
| 2026-05-06 11:54 | 43.96517 | 17.24419 | 38036 ft | 422 kts | 314° |
| 2026-05-06 11:54 | 44.00874 | 17.18947 | 38032 ft | 422 kts | 314° |
| 2026-05-06 11:55 | 44.05232 | 17.13468 | 38028 ft | 423 kts | 314° |
| 2026-05-06 11:55 | 44.09589 | 17.07976 | 38024 ft | 423 kts | 314° |
| 2026-05-06 11:56 | 44.13951 | 17.02478 | 38019 ft | 423 kts | 314° |
| 2026-05-06 11:56 | 44.18312 | 16.96968 | 38012 ft | 423 kts | 314° |
| 2026-05-06 11:57 | 44.22669 | 16.91444 | 38001 ft | 424 kts | 314° |
| 2026-05-06 11:57 | 44.27032 | 16.85907 | 37995 ft | 424 kts | 313° |
| 2026-05-06 11:58 | 44.31387 | 16.80347 | 37991 ft | 424 kts | 313° |
| 2026-05-06 11:58 | 44.35688 | 16.74710 | 37985 ft | 424 kts | 312° |
| 2026-05-06 11:59 | 44.39970 | 16.69029 | 37982 ft | 425 kts | 312° |
| 2026-05-06 11:59 | 44.44260 | 16.63347 | 37980 ft | 425 kts | 312° |
| 2026-05-06 12:00 | 44.48556 | 16.57664 | 37982 ft | 425 kts | 312° |
| 2026-05-06 12:00 | 44.52854 | 16.51969 | 37979 ft | 425 kts | 312° |
| 2026-05-06 12:01 | 44.57152 | 16.46271 | 37979 ft | 425 kts | 312° |
| 2026-05-06 12:01 | 44.61440 | 16.40552 | 37979 ft | 425 kts | 312° |
| 2026-05-06 12:02 | 44.65726 | 16.34825 | 37977 ft | 426 kts | 312° |
| 2026-05-06 12:02 | 44.70016 | 16.29088 | 37979 ft | 426 kts | 312° |
| 2026-05-06 12:03 | 44.74305 | 16.23333 | 37979 ft | 426 kts | 312° |
| 2026-05-06 12:03 | 44.78595 | 16.17575 | 37978 ft | 426 kts | 312° |
| 2026-05-06 12:04 | 44.82882 | 16.11807 | 37971 ft | 426 kts | 312° |
| 2026-05-06 12:04 | 44.87162 | 16.06024 | 37980 ft | 426 kts | 312° |
| 2026-05-06 12:05 | 44.91436 | 16.00237 | 37979 ft | 426 kts | 312° |
| 2026-05-06 12:05 | 44.95681 | 15.94488 | 37968 ft | 426 kts | 311° |
| 2026-05-06 12:06 | 44.99952 | 15.88679 | 37964 ft | 426 kts | 311° |
| 2026-05-06 12:06 | 45.04227 | 15.82865 | 37962 ft | 427 kts | 311° |
| 2026-05-06 12:07 | 45.08504 | 15.77041 | 37961 ft | 427 kts | 311° |
| 2026-05-06 12:07 | 45.12772 | 15.71198 | 37963 ft | 427 kts | 311° |
| 2026-05-06 12:08 | 45.17032 | 15.65341 | 37965 ft | 427 kts | 311° |
| 2026-05-06 12:08 | 45.21301 | 15.59483 | 37971 ft | 427 kts | 311° |
| 2026-05-06 12:09 | 45.25567 | 15.53610 | 37973 ft | 427 kts | 311° |
| 2026-05-06 12:09 | 45.29833 | 15.47739 | 37977 ft | 427 kts | 311° |
| 2026-05-06 12:10 | 45.34098 | 15.41862 | 37981 ft | 427 kts | 311° |
| 2026-05-06 12:10 | 45.38354 | 15.35967 | 37982 ft | 427 kts | 311° |
| 2026-05-06 12:11 | 45.42600 | 15.30056 | 37983 ft | 427 kts | 311° |
| 2026-05-06 12:11 | 45.46844 | 15.24145 | 37983 ft | 427 kts | 310° |
| 2026-05-06 12:12 | 45.51082 | 15.18227 | 37983 ft | 427 kts | 310° |
| 2026-05-06 12:12 | 45.55325 | 15.12304 | 37982 ft | 427 kts | 310° |
| 2026-05-06 12:13 | 45.59564 | 15.06371 | 37982 ft | 427 kts | 310° |
| 2026-05-06 12:13 | 45.63805 | 15.00411 | 37987 ft | 428 kts | 310° |
| 2026-05-06 12:14 | 45.68043 | 14.94450 | 37985 ft | 427 kts | 310° |
| 2026-05-06 12:14 | 45.72278 | 14.88482 | 37982 ft | 427 kts | 310° |
| 2026-05-06 12:15 | 45.76505 | 14.82499 | 37975 ft | 427 kts | 310° |
| 2026-05-06 12:15 | 45.80736 | 14.76509 | 37977 ft | 428 kts | 310° |
| 2026-05-06 12:16 | 45.84965 | 14.70494 | 37973 ft | 428 kts | 310° |
| 2026-05-06 12:16 | 45.89194 | 14.64472 | 37976 ft | 428 kts | 310° |
| 2026-05-06 12:17 | 45.93426 | 14.58438 | 37961 ft | 429 kts | 310° |
| 2026-05-06 12:17 | 45.97662 | 14.52399 | 37968 ft | 429 kts | 310° |
| 2026-05-06 12:18 | 46.01895 | 14.46337 | 37970 ft | 430 kts | 310° |
| 2026-05-06 12:18 | 46.06121 | 14.40259 | 37962 ft | 430 kts | 310° |
| 2026-05-06 12:19 | 46.10351 | 14.34168 | 37952 ft | 430 kts | 310° |
| 2026-05-06 12:19 | 46.14559 | 14.28043 | 37963 ft | 429 kts | 309° |
| 2026-05-06 12:20 | 46.18628 | 14.21747 | 37963 ft | 428 kts | 307° |
| 2026-05-06 12:20 | 46.22622 | 14.15363 | 37954 ft | 428 kts | 307° |
| 2026-05-06 12:21 | 46.26620 | 14.08989 | 37948 ft | 428 kts | 307° |
| 2026-05-06 12:21 | 46.30643 | 14.02637 | 37954 ft | 428 kts | 307° |
| 2026-05-06 12:22 | 46.34673 | 13.96287 | 37946 ft | 429 kts | 307° |
| 2026-05-06 12:22 | 46.38701 | 13.89917 | 37939 ft | 429 kts | 307° |
| 2026-05-06 12:23 | 46.42726 | 13.83534 | 37946 ft | 429 kts | 307° |
| 2026-05-06 12:23 | 46.46744 | 13.77126 | 37937 ft | 429 kts | 307° |
| 2026-05-06 12:24 | 46.50761 | 13.70717 | 37934 ft | 430 kts | 307° |
| 2026-05-06 12:24 | 46.54759 | 13.64344 | 37932 ft | 430 kts | 307° |
| 2026-05-06 12:25 | 46.58798 | 13.57860 | 37929 ft | 430 kts | 307° |
| 2026-05-06 12:25 | 46.62805 | 13.51397 | 37922 ft | 430 kts | 306° |
| 2026-05-06 12:26 | 46.66826 | 13.44931 | 37924 ft | 431 kts | 306° |
| 2026-05-06 12:26 | 46.70843 | 13.38454 | 37915 ft | 431 kts | 306° |
| 2026-05-06 12:27 | 46.74857 | 13.31956 | 37908 ft | 431 kts | 306° |
| 2026-05-06 12:27 | 46.78866 | 13.25445 | 37905 ft | 432 kts | 306° |
| 2026-05-06 12:28 | 46.82875 | 13.18917 | 37892 ft | 431 kts | 306° |
| 2026-05-06 12:28 | 46.86884 | 13.12383 | 37884 ft | 432 kts | 306° |
| 2026-05-06 12:29 | 46.90218 | 13.06943 | 37894 ft | 433 kts | 306° |
| 2026-05-06 12:29 | 46.94225 | 13.00385 | 37888 ft | 432 kts | 306° |
| 2026-05-06 12:30 | 46.98231 | 12.93818 | 37889 ft | 433 kts | 306° |
| 2026-05-06 12:30 | 47.02234 | 12.87238 | 37890 ft | 432 kts | 305° |
| 2026-05-06 12:31 | 47.06234 | 12.80652 | 37886 ft | 433 kts | 305° |
| 2026-05-06 12:31 | 47.10100 | 12.73928 | 37882 ft | 425 kts | 295° |
| 2026-05-06 12:32 | 47.12481 | 12.66143 | 37870 ft | 417 kts | 287° |
| 2026-05-06 12:32 | 47.14670 | 12.58262 | 37865 ft | 417 kts | 286° |
| 2026-05-06 12:33 | 47.16845 | 12.50355 | 37867 ft | 418 kts | 286° |
| 2026-05-06 12:33 | 47.19029 | 12.42437 | 37865 ft | 419 kts | 286° |
| 2026-05-06 12:34 | 47.21214 | 12.34506 | 37864 ft | 418 kts | 286° |
| 2026-05-06 12:34 | 47.23387 | 12.26588 | 37866 ft | 418 kts | 286° |
| 2026-05-06 12:35 | 47.25555 | 12.18647 | 37864 ft | 418 kts | 286° |
| 2026-05-06 12:35 | 47.27715 | 12.10694 | 37861 ft | 418 kts | 286° |
| 2026-05-06 12:36 | 47.29867 | 12.02745 | 37852 ft | 418 kts | 285° |
| 2026-05-06 12:36 | 47.32019 | 11.94786 | 37845 ft | 418 kts | 285° |
| 2026-05-06 12:37 | 47.34171 | 11.86811 | 37835 ft | 419 kts | 285° |
| 2026-05-06 12:37 | 47.36355 | 11.78845 | 37826 ft | 419 kts | 286° |
| 2026-05-06 12:38 | 47.38554 | 11.70882 | 37819 ft | 419 kts | 286° |
| 2026-05-06 12:38 | 47.40739 | 11.62901 | 37813 ft | 419 kts | 286° |
| 2026-05-06 12:39 | 47.42905 | 11.54916 | 37799 ft | 419 kts | 285° |
| 2026-05-06 12:39 | 47.45060 | 11.46910 | 37796 ft | 420 kts | 285° |
| 2026-05-06 12:40 | 47.47217 | 11.38898 | 37794 ft | 420 kts | 285° |
| 2026-05-06 12:40 | 47.49379 | 11.30880 | 37790 ft | 420 kts | 285° |
| 2026-05-06 12:41 | 47.51535 | 11.22848 | 37794 ft | 420 kts | 285° |
| 2026-05-06 12:41 | 47.53686 | 11.14815 | 37797 ft | 420 kts | 285° |
| 2026-05-06 12:42 | 47.55824 | 11.06766 | 37796 ft | 420 kts | 285° |
| 2026-05-06 12:42 | 47.57961 | 10.98712 | 37800 ft | 420 kts | 285° |
| 2026-05-06 12:43 | 47.60091 | 10.90645 | 37792 ft | 421 kts | 285° |
| 2026-05-06 12:43 | 47.62219 | 10.82565 | 37786 ft | 421 kts | 285° |
| 2026-05-06 12:44 | 47.64339 | 10.74476 | 37782 ft | 421 kts | 285° |
| 2026-05-06 12:44 | 47.65402 | 10.70420 | 37668 ft | 422 kts | 285° |
| 2026-05-06 12:44 | 47.66463 | 10.66365 | 37415 ft | 422 kts | 285° |
| 2026-05-06 12:45 | 47.67520 | 10.62311 | 36903 ft | 421 kts | 285° |
| 2026-05-06 12:45 | 47.68557 | 10.58320 | 36195 ft | 420 kts | 284° |
| 2026-05-06 12:45 | 47.70658 | 10.50150 | 34590 ft | 420 kts | 281° |
| 2026-05-06 12:46 | 47.71238 | 10.45998 | 33864 ft | 404 kts | 266° |
| 2026-05-06 12:46 | 47.71263 | 10.41858 | 32981 ft | 402 kts | 263° |
| 2026-05-06 12:46 | 47.71242 | 10.37689 | 32048 ft | 405 kts | 263° |
| 2026-05-06 12:46 | 47.71220 | 10.33497 | 31064 ft | 409 kts | 263° |
| 2026-05-06 12:47 | 47.71266 | 10.29252 | 29996 ft | 414 kts | 265° |
| 2026-05-06 12:47 | 47.71376 | 10.24951 | 28880 ft | 417 kts | 266° |
| 2026-05-06 12:47 | 47.71524 | 10.20712 | 27937 ft | 404 kts | 267° |
| 2026-05-06 12:47 | 47.71681 | 10.16637 | 27301 ft | 386 kts | 267° |
| 2026-05-06 12:48 | 47.71820 | 10.12682 | 26674 ft | 384 kts | 266° |
| 2026-05-06 12:48 | 47.71936 | 10.08729 | 26052 ft | 383 kts | 266° |
| 2026-05-06 12:48 | 47.72034 | 10.04785 | 25436 ft | 381 kts | 266° |
| 2026-05-06 12:48 | 47.72123 | 10.00837 | 24817 ft | 382 kts | 266° |
| 2026-05-06 12:49 | 47.72211 | 9.96905 | 24178 ft | 381 kts | 266° |
| 2026-05-06 12:49 | 47.72302 | 9.92980 | 23531 ft | 380 kts | 267° |
| 2026-05-06 12:49 | 47.72397 | 9.89124 | 22932 ft | 378 kts | 267° |
| 2026-05-06 12:49 | 47.72495 | 9.85227 | 22332 ft | 377 kts | 267° |
| 2026-05-06 12:50 | 47.72589 | 9.81347 | 21751 ft | 375 kts | 267° |
| 2026-05-06 12:50 | 47.72680 | 9.77487 | 21217 ft | 373 kts | 266° |
| 2026-05-06 12:50 | 47.72767 | 9.73655 | 20684 ft | 370 kts | 266° |
| 2026-05-06 12:50 | 47.72853 | 9.69854 | 20189 ft | 366 kts | 267° |
| 2026-05-06 12:51 | 47.72924 | 9.66086 | 19679 ft | 363 kts | 265° |
| 2026-05-06 12:51 | 47.72896 | 9.62278 | 18875 ft | 372 kts | 263° |
| 2026-05-06 12:51 | 47.72786 | 9.58434 | 18113 ft | 374 kts | 262° |
| 2026-05-06 12:51 | 47.72644 | 9.54573 | 17349 ft | 376 kts | 262° |
| 2026-05-06 12:52 | 47.72494 | 9.50685 | 16564 ft | 378 kts | 262° |
| 2026-05-06 12:52 | 47.72280 | 9.46790 | 15777 ft | 378 kts | 257° |
| 2026-05-06 12:52 | 47.71595 | 9.43013 | 14997 ft | 375 kts | 246° |
| 2026-05-06 12:52 | 47.70408 | 9.39567 | 14217 ft | 373 kts | 234° |
| 2026-05-06 12:53 | 47.68857 | 9.36576 | 13471 ft | 371 kts | 229° |
| 2026-05-06 12:53 | 47.67230 | 9.33617 | 12755 ft | 370 kts | 229° |
| 2026-05-06 12:53 | 47.65606 | 9.30666 | 12092 ft | 366 kts | 229° |
| 2026-05-06 12:53 | 47.64018 | 9.27781 | 11186 ft | 354 kts | 229° |
| 2026-05-06 12:54 | 47.62489 | 9.24998 | 10476 ft | 343 kts | 229° |
| 2026-05-06 12:54 | 47.61034 | 9.22350 | 10148 ft | 317 kts | 230° |
| 2026-05-06 12:54 | 47.59837 | 9.19758 | 9940 ft | 295 kts | 241° |
| 2026-05-06 12:54 | 47.59086 | 9.17035 | 9720 ft | 277 kts | 253° |
| 2026-05-06 12:55 | 47.58707 | 9.14340 | 9589 ft | 260 kts | 258° |
| 2026-05-06 12:55 | 47.58386 | 9.11724 | 9470 ft | 257 kts | 258° |
| 2026-05-06 12:55 | 47.58061 | 9.09119 | 9349 ft | 257 kts | 258° |
| 2026-05-06 12:55 | 47.57735 | 9.06529 | 9224 ft | 255 kts | 257° |
| 2026-05-06 12:56 | 47.57178 | 9.04071 | 9054 ft | 249 kts | 243° |
| 2026-05-06 12:56 | 47.56267 | 9.01914 | 8698 ft | 247 kts | 230° |
| 2026-05-06 12:56 | 47.55121 | 9.00028 | 8346 ft | 246 kts | 227° |
| 2026-05-06 12:56 | 47.53972 | 8.98157 | 7994 ft | 245 kts | 227° |
| 2026-05-06 12:57 | 47.52828 | 8.96289 | 7650 ft | 244 kts | 227° |
| 2026-05-06 12:57 | 47.51688 | 8.94426 | 7300 ft | 244 kts | 227° |
| 2026-05-06 12:57 | 47.50554 | 8.92568 | 6950 ft | 241 kts | 227° |
| 2026-05-06 12:57 | 47.49441 | 8.90746 | 6594 ft | 236 kts | 227° |
| 2026-05-06 12:58 | 47.48361 | 8.88985 | 6242 ft | 227 kts | 227° |
| 2026-05-06 12:58 | 47.47320 | 8.87292 | 5930 ft | 218 kts | 227° |
| 2026-05-06 12:58 | 47.46325 | 8.85672 | 5633 ft | 208 kts | 227° |
| 2026-05-06 12:58 | 47.45377 | 8.84129 | 5388 ft | 200 kts | 228° |
| 2026-05-06 12:59 | 47.44487 | 8.82587 | 5084 ft | 195 kts | 238° |
| 2026-05-06 12:59 | 47.44042 | 8.80785 | 4949 ft | 182 kts | 262° |
| 2026-05-06 12:59 | 47.44082 | 8.78921 | 4622 ft | 182 kts | 276° |
| 2026-05-06 12:59 | 47.44223 | 8.77071 | 4337 ft | 180 kts | 277° |
| 2026-05-06 13:00 | 47.44356 | 8.75270 | 4063 ft | 172 kts | 276° |
| 2026-05-06 13:00 | 47.44476 | 8.73603 | 3844 ft | 154 kts | 277° |
| 2026-05-06 13:00 | 47.44581 | 8.72095 | 3599 ft | 142 kts | 277° |
| 2026-05-06 13:00 | 47.44680 | 8.70678 | 3390 ft | 137 kts | 276° |
| 2026-05-06 13:01 | 47.44781 | 8.69236 | 3172 ft | 144 kts | 276° |
| 2026-05-06 13:01 | 47.44884 | 8.67764 | 2983 ft | 144 kts | 277° |
| 2026-05-06 13:01 | 47.44984 | 8.66320 | 2759 ft | 140 kts | 277° |
| 2026-05-06 13:01 | 47.45084 | 8.64905 | 2538 ft | 137 kts | 277° |
| 2026-05-06 13:02 | 47.45181 | 8.63511 | 2351 ft | 136 kts | 277° |
| 2026-05-06 13:02 | 47.45277 | 8.62127 | 2166 ft | 135 kts | 277° |
| 2026-05-06 13:02 | 47.45376 | 8.60738 | 1988 ft | 137 kts | 277° |
| 2026-05-06 13:02 | 47.45484 | 8.59317 | 1806 ft | 141 kts | 276° |
| 2026-05-06 13:03 | 47.45599 | 8.57848 | 1592 ft | 144 kts | 276° |
| 2026-05-06 13:03 | 47.45710 | 8.56372 | 1424 ft | 139 kts | 276° |
| 2026-05-06 13:03 | 47.45793 | 8.55184 | 1399 ft | 82 kts | 276° |
| 2026-05-06 13:03 | 47.45826 | 8.54681 | 1392 ft | 26 kts | 273° |
| 2026-05-06 13:04 | 47.45802 | 8.54423 | 1387 ft | 25 kts | 250° |
| 2026-05-06 13:04 | 47.45741 | 8.54243 | 1385 ft | 16 kts | 223° |
| 2026-05-06 13:04 | 47.45632 | 8.54236 | 1384 ft | 18 kts | 136° |
| 2026-05-06 13:04 | 47.45584 | 8.54410 | 1388 ft | 20 kts | 108° |
| 2026-05-06 13:05 | 47.45539 | 8.54613 | 1391 ft | 22 kts | 108° |
| 2026-05-06 13:05 | 47.45489 | 8.54838 | 1395 ft | 24 kts | 109° |
| 2026-05-06 13:05 | 47.45431 | 8.55083 | 1401 ft | 26 kts | 109° |
| 2026-05-06 13:05 | 47.45366 | 8.55323 | 1399 ft | 16 kts | 118° |
| 2026-05-06 13:06 | 47.45314 | 8.55461 | 1403 ft | 14 kts | 119° |
| 2026-05-06 13:06 | 47.45276 | 8.55574 | 1413 ft | 10 kts | 103° |
| 2026-05-06 13:06 | 47.45268 | 8.55678 | 1411 ft | 12 kts | 96° |
| 2026-05-06 13:06 | 47.45282 | 8.55747 | 1407 ft | 6 kts | 1° |
| 2026-05-06 13:07 | 47.45317 | 8.55750 | 1407 ft | 5 kts | 6° |
| 2026-05-06 13:07 | 47.45343 | 8.55754 | 1411 ft | 3 kts | 6° |
| 2026-05-06 13:07 | 47.45350 | 8.55755 | 1407 ft | 0 kts | 6° |